createdAt,value
2017-12-25T00:02:16.890Z,101248.95
2017-12-25T00:04:44.467Z,101258.78
2017-12-25T00:07:12.110Z,101251.39
2017-12-25T00:09:39.686Z,101253.58
2017-12-25T00:12:07.270Z,101257.94
2017-12-25T00:14:34.848Z,101249.75
2017-12-25T00:17:02.506Z,101253.27
2017-12-25T00:19:30.167Z,101249.72
2017-12-25T00:21:57.738Z,101248.87
2017-12-25T00:24:25.306Z,101253.53
2017-12-25T00:26:52.875Z,101256.58
2017-12-25T00:29:20.450Z,101260.66
2017-12-25T00:31:48.062Z,101266.25
2017-12-25T00:34:15.638Z,101261.02
2017-12-25T00:36:43.214Z,101256.12
2017-12-25T00:39:10.792Z,101256.35
2017-12-25T00:41:38.398Z,101260.48
2017-12-25T00:44:05.983Z,101261.86
2017-12-25T00:46:33.559Z,101263.90
2017-12-25T00:49:01.134Z,101264.67
2017-12-25T00:51:28.696Z,101259.28
2017-12-25T00:53:56.315Z,101271.48
2017-12-25T00:56:23.903Z,101272.80
2017-12-25T00:58:51.471Z,101269.56
2017-12-25T01:01:19.263Z,101284.12
2017-12-25T01:03:46.827Z,101284.30
2017-12-25T01:06:14.438Z,101279.78
2017-12-25T01:08:42.008Z,101280.49
2017-12-25T01:11:09.619Z,101281.52
2017-12-25T01:13:37.195Z,101282.87
2017-12-25T01:16:04.810Z,101293.05
2017-12-25T01:18:32.381Z,101301.66
2017-12-25T01:20:59.954Z,101303.69
2017-12-25T01:23:27.535Z,101303.14
2017-12-25T01:25:55.107Z,101301.08
2017-12-25T01:28:22.719Z,101298.91
2017-12-25T01:30:50.292Z,101309.45
2017-12-25T01:33:17.862Z,101307.80
2017-12-25T01:35:45.471Z,101309.70
2017-12-25T01:38:13.083Z,101304.30
2017-12-25T01:40:40.655Z,101309.41
2017-12-25T01:43:08.262Z,101305.91
2017-12-25T01:45:35.883Z,101315.23
2017-12-25T01:48:03.460Z,101313.83
2017-12-25T01:50:31.031Z,101301.08
2017-12-25T01:52:58.607Z,101300.55
2017-12-25T01:55:27.110Z,101306.03
2017-12-25T01:58:00.117Z,101300.47
2017-12-25T02:00:34.235Z,101299.98
2017-12-25T02:03:01.847Z,101289.02
2017-12-25T02:05:30.329Z,101286.66
2017-12-25T02:08:05.638Z,101294.45
2017-12-25T02:10:33.214Z,101289.30
2017-12-25T02:13:00.831Z,101291.95
2017-12-25T02:15:28.491Z,101293.67
2017-12-25T02:17:56.784Z,101283.92
2017-12-25T02:20:24.396Z,101285.66
2017-12-25T02:22:52.057Z,101285.55
2017-12-25T02:25:19.887Z,101291.52
2017-12-25T02:27:47.459Z,101299.94
2017-12-25T02:30:15.037Z,101292.06
2017-12-25T02:32:42.608Z,101299.64
2017-12-25T02:35:10.267Z,101303.31
2017-12-25T02:37:37.932Z,101301.08
2017-12-25T02:40:05.508Z,101298.42
2017-12-25T02:42:33.074Z,101302.59
2017-12-25T02:45:00.771Z,101301.94
2017-12-25T02:47:28.335Z,101293.08
2017-12-25T02:49:55.912Z,101302.57
2017-12-25T02:52:23.483Z,101306.45
2017-12-25T02:54:51.067Z,101308.22
2017-12-25T02:57:19.701Z,101302.52
2017-12-25T02:59:47.342Z,101302.23
2017-12-25T03:02:14.904Z,101303.52
2017-12-25T03:04:42.479Z,101296.51
2017-12-25T03:07:10.057Z,101309.66
2017-12-25T03:09:37.626Z,101301.41
2017-12-25T03:12:05.199Z,101311.24
2017-12-25T03:14:32.810Z,101314.44
2017-12-25T03:17:00.383Z,101307.73
2017-12-25T03:19:28.004Z,101304.37
2017-12-25T03:21:55.578Z,101297.60
2017-12-25T03:24:23.221Z,101303.22
2017-12-25T03:26:51.704Z,101300.98
2017-12-25T03:29:19.274Z,101303.57
2017-12-25T03:31:47.493Z,101307.73
2017-12-25T03:34:15.066Z,101307.09
2017-12-25T03:36:42.634Z,101305.77
2017-12-25T03:39:10.212Z,101298.48
2017-12-25T03:41:38.003Z,101306.27
2017-12-25T03:44:05.575Z,101299.45
2017-12-25T03:46:33.216Z,101311.70
2017-12-25T03:49:00.781Z,101312.52
2017-12-25T03:51:29.287Z,101308.64
2017-12-25T03:53:56.856Z,101313.16
2017-12-25T03:56:25.317Z,101308.25
2017-12-25T03:58:52.887Z,101313.73
2017-12-25T04:01:20.453Z,101312.59
2017-12-25T04:03:48.022Z,101314.11
2017-12-25T04:06:15.622Z,101319.91
2017-12-25T04:08:43.190Z,101318.59
2017-12-25T04:11:10.764Z,101328.28
2017-12-25T04:13:38.382Z,101313.09
2017-12-25T04:16:05.950Z,101321.75
2017-12-25T04:18:33.557Z,101319.70
2017-12-25T04:21:02.030Z,101313.97
2017-12-25T04:23:29.611Z,101315.70
2017-12-25T04:25:57.174Z,101312.84
2017-12-25T04:28:24.813Z,101312.42
2017-12-25T04:30:53.404Z,101316.48
2017-12-25T04:33:21.015Z,101315.03
2017-12-25T04:35:49.338Z,101309.64
2017-12-25T04:38:16.959Z,101317.09
2017-12-25T04:40:44.566Z,101326.26
2017-12-25T04:43:12.200Z,101320.19
2017-12-25T04:45:40.551Z,101313.41
2017-12-25T04:48:08.892Z,101319.87
2017-12-25T04:50:36.472Z,101319.30
2017-12-25T04:53:04.037Z,101312.33
2017-12-25T04:55:31.646Z,101314.07
2017-12-25T04:58:00.151Z,101310.93
2017-12-25T05:00:27.805Z,101314.64
2017-12-25T05:02:56.150Z,101305.06
2017-12-25T05:05:25.269Z,101300.54
2017-12-25T05:07:52.830Z,101297.53
2017-12-25T05:10:21.227Z,101303.92
2017-12-25T05:12:48.894Z,101294.50
2017-12-25T05:15:17.358Z,101293.59
2017-12-25T05:17:45.954Z,101286.60
2017-12-25T05:20:13.532Z,101293.41
2017-12-25T05:22:41.098Z,101295.92
2017-12-25T05:25:09.456Z,101289.24
2017-12-25T05:27:37.074Z,101294.83
2017-12-25T05:30:04.641Z,101289.84
2017-12-25T05:32:32.203Z,101294.05
2017-12-25T05:35:00.549Z,101291.48
2017-12-25T05:37:28.153Z,101294.37
2017-12-25T05:39:55.758Z,101297.97
2017-12-25T05:42:24.167Z,101304.08
2017-12-25T05:44:51.738Z,101292.70
2017-12-25T05:47:19.347Z,101291.22
2017-12-25T05:49:47.015Z,101298.57
2017-12-25T05:52:14.623Z,101297.41
2017-12-25T05:54:42.231Z,101295.31
2017-12-25T05:57:09.795Z,101295.45
2017-12-25T05:59:38.157Z,101291.24
2017-12-25T06:02:05.732Z,101300.02
2017-12-25T06:04:33.310Z,101301.25
2017-12-25T06:07:00.942Z,101305.20
2017-12-25T06:09:28.523Z,101299.03
2017-12-25T06:11:56.183Z,101295.89
2017-12-25T06:14:23.752Z,101299.52
2017-12-25T06:16:52.225Z,101287.20
2017-12-25T06:19:19.803Z,101296.70
2017-12-25T06:21:47.375Z,101295.36
2017-12-25T06:24:14.964Z,101287.52
2017-12-25T06:26:42.531Z,101290.84
2017-12-25T06:29:10.102Z,101296.95
2017-12-25T06:31:37.671Z,101288.65
2017-12-25T06:34:05.251Z,101292.38
2017-12-25T06:36:32.850Z,101292.09
2017-12-25T06:39:00.475Z,101298.63
2017-12-25T06:41:28.148Z,101300.02
2017-12-25T06:43:55.735Z,101298.01
2017-12-25T06:46:23.346Z,101303.65
2017-12-25T06:48:50.916Z,101299.97
2017-12-25T06:51:18.533Z,101303.36
2017-12-25T06:53:46.104Z,101297.21
2017-12-25T06:56:13.674Z,101297.61
2017-12-25T06:58:41.267Z,101297.61
2017-12-25T07:01:09.901Z,101291.29
2017-12-25T07:03:37.507Z,101292.13
2017-12-25T07:06:05.071Z,101290.44
2017-12-25T07:08:32.678Z,101293.55
2017-12-25T07:11:00.313Z,101298.29
2017-12-25T07:13:27.890Z,101296.90
2017-12-25T07:15:55.457Z,101296.90
2017-12-25T07:18:23.019Z,101300.08
2017-12-25T07:20:50.580Z,101297.48
2017-12-25T07:23:19.177Z,101296.99
2017-12-25T07:25:47.607Z,101291.67
2017-12-25T07:28:15.177Z,101300.69
2017-12-25T07:30:42.781Z,101296.03
2017-12-25T07:33:10.347Z,101296.57
2017-12-25T07:35:37.952Z,101296.20
2017-12-25T07:38:05.522Z,101301.77
2017-12-25T07:40:33.867Z,101304.97
2017-12-25T07:43:02.380Z,101299.72
2017-12-25T07:45:30.887Z,101296.58
2017-12-25T07:47:59.221Z,101296.62
2017-12-25T07:50:26.789Z,101295.31
2017-12-25T07:52:55.176Z,101296.77
2017-12-25T07:55:23.557Z,101296.84
2017-12-25T07:57:51.995Z,101296.01
2017-12-25T08:00:21.195Z,101295.20
2017-12-25T08:02:48.898Z,101294.61
2017-12-25T08:05:17.360Z,101298.00
2017-12-25T08:07:45.759Z,101300.72
2017-12-25T08:10:14.179Z,101301.78
2017-12-25T08:12:41.755Z,101300.72
2017-12-25T08:15:10.371Z,101306.12
2017-12-25T08:17:38.720Z,101306.80
2017-12-25T08:20:07.097Z,101301.61
2017-12-25T08:22:34.702Z,101310.30
2017-12-25T08:25:02.296Z,101311.17
2017-12-25T08:27:30.799Z,101303.09
2017-12-25T08:29:58.402Z,101306.20
2017-12-25T08:32:26.114Z,101305.21
2017-12-25T08:34:54.629Z,101303.02
2017-12-25T08:37:22.751Z,101301.58
2017-12-25T08:39:50.328Z,101298.33
2017-12-25T08:42:17.898Z,101300.27
2017-12-25T08:44:45.498Z,101302.06
2017-12-25T08:47:13.067Z,101302.55
2017-12-25T08:49:40.668Z,101304.92
2017-12-25T08:52:09.151Z,101312.66
2017-12-25T08:54:37.557Z,101308.67
2017-12-25T08:57:05.923Z,101313.22
2017-12-25T08:59:33.546Z,101307.86
2017-12-25T09:02:01.934Z,101304.12
2017-12-25T09:04:30.283Z,101316.45
2017-12-25T09:06:58.754Z,101318.63
2017-12-25T09:09:26.849Z,101316.90
2017-12-25T09:11:54.460Z,101315.10
2017-12-25T09:14:22.956Z,101315.38
2017-12-25T09:16:50.558Z,101305.11
2017-12-25T09:19:18.184Z,101314.57
2017-12-25T09:21:45.888Z,101314.82
2017-12-25T09:24:14.412Z,101312.63
2017-12-25T09:26:41.980Z,101314.92
2017-12-25T09:29:09.554Z,101308.33
2017-12-25T09:31:37.136Z,101310.16
2017-12-25T09:34:04.707Z,101311.17
2017-12-25T09:36:32.324Z,101311.89
2017-12-25T09:38:59.898Z,101305.42
2017-12-25T09:41:27.466Z,101303.38
2017-12-25T09:43:55.042Z,101302.04
2017-12-25T09:46:22.615Z,101306.91
2017-12-25T09:48:50.246Z,101297.09
2017-12-25T09:51:18.619Z,101307.02
2017-12-25T09:53:46.185Z,101297.52
2017-12-25T09:56:13.757Z,101301.44
2017-12-25T09:58:41.366Z,101295.36
2017-12-25T10:01:09.023Z,101298.58
2017-12-25T10:03:36.678Z,101297.87
2017-12-25T10:06:04.248Z,101292.00
2017-12-25T10:08:31.826Z,101293.03
2017-12-25T10:10:59.429Z,101297.16
2017-12-25T10:13:27.862Z,101293.91
2017-12-25T10:15:56.216Z,101294.94
2017-12-25T10:18:23.779Z,101290.80
2017-12-25T10:20:51.426Z,101280.95
2017-12-25T10:23:19.022Z,101283.78
2017-12-25T10:25:46.587Z,101285.97
2017-12-25T10:28:14.163Z,101285.88
2017-12-25T10:30:42.707Z,101294.58
2017-12-25T10:33:10.327Z,101284.58
2017-12-25T10:35:37.941Z,101282.94
2017-12-25T10:38:10.461Z,101280.11
2017-12-25T10:40:38.046Z,101272.48
2017-12-25T10:43:05.663Z,101277.64
2017-12-25T10:45:37.374Z,101269.34
2017-12-25T10:48:04.998Z,101267.33
2017-12-25T10:50:33.546Z,101265.03
2017-12-25T10:53:02.018Z,101257.62
2017-12-25T10:55:30.475Z,101258.04
2017-12-25T10:57:59.093Z,101256.48
2017-12-25T11:00:32.371Z,101257.75
2017-12-25T11:03:00.895Z,101252.24
2017-12-25T11:05:28.482Z,101245.78
2017-12-25T11:07:56.086Z,101250.51
2017-12-25T11:10:23.667Z,101238.15
2017-12-25T11:12:52.035Z,101238.75
2017-12-25T11:15:20.383Z,101237.44
2017-12-25T11:17:48.027Z,101225.97
2017-12-25T11:20:15.635Z,101231.55
2017-12-25T11:22:43.242Z,101228.77
2017-12-25T11:25:10.895Z,101216.40
2017-12-25T11:27:38.470Z,101218.63
2017-12-25T11:30:06.962Z,101215.67
2017-12-25T11:32:34.578Z,101203.91
2017-12-25T11:35:02.366Z,101211.70
2017-12-25T11:37:30.953Z,101205.22
2017-12-25T11:39:58.682Z,101212.74
2017-12-25T11:42:26.259Z,101211.94
2017-12-25T11:44:53.903Z,101210.63
2017-12-25T11:47:21.477Z,101214.37
2017-12-25T11:49:49.943Z,101212.92
2017-12-25T11:52:18.924Z,101208.26
2017-12-25T11:54:47.435Z,101205.69
2017-12-25T11:57:15.789Z,101207.84
2017-12-25T11:59:44.147Z,101199.59
2017-12-25T12:02:11.784Z,101192.77
2017-12-25T12:04:39.358Z,101192.13
2017-12-25T12:07:07.079Z,101184.19
2017-12-25T12:09:35.548Z,101193.19
2017-12-25T12:12:03.175Z,101182.05
2017-12-25T12:14:31.681Z,101185.91
2017-12-25T12:16:59.286Z,101186.89
2017-12-25T12:19:27.792Z,101182.97
2017-12-25T12:21:55.366Z,101176.53
2017-12-25T12:24:22.971Z,101177.35
2017-12-25T12:26:50.544Z,101167.92
2017-12-25T12:29:18.150Z,101165.84
2017-12-25T12:31:46.564Z,101169.23
2017-12-25T12:34:14.130Z,101162.13
2017-12-25T12:36:42.614Z,101158.07
2017-12-25T12:39:11.095Z,101152.11
2017-12-25T12:41:39.607Z,101156.98
2017-12-25T12:44:08.087Z,101154.59
2017-12-25T12:46:36.534Z,101153.43
2017-12-25T12:49:05.022Z,101152.22
2017-12-25T12:51:33.403Z,101153.11
2017-12-25T12:54:01.945Z,101146.46
2017-12-25T12:56:29.519Z,101143.81
2017-12-25T12:58:57.994Z,101140.36
2017-12-25T13:01:26.363Z,101140.92
2017-12-25T13:03:54.879Z,101134.02
2017-12-25T13:06:23.220Z,101130.87
2017-12-25T13:08:51.750Z,101137.79
2017-12-25T13:11:19.363Z,101126.98
2017-12-25T13:13:46.974Z,101126.02
2017-12-25T13:16:15.492Z,101127.20
2017-12-25T13:18:43.109Z,101132.95
2017-12-25T13:21:10.816Z,101131.89
2017-12-25T13:23:39.347Z,101126.39
2017-12-25T13:26:07.038Z,101127.60
2017-12-25T13:28:34.690Z,101120.80
2017-12-25T13:31:02.355Z,101118.04
2017-12-25T13:33:30.467Z,101125.55
2017-12-25T13:35:58.095Z,101120.56
2017-12-25T13:38:26.675Z,101125.13
2017-12-25T13:40:55.155Z,101123.78
2017-12-25T13:43:22.768Z,101121.20
2017-12-25T13:45:50.374Z,101117.58
2017-12-25T13:48:18.049Z,101118.30
2017-12-25T13:50:45.707Z,101109.72
2017-12-25T13:53:14.216Z,101115.93
2017-12-25T13:55:42.614Z,101117.55
2017-12-25T13:58:11.000Z,101111.91
2017-12-25T14:00:39.480Z,101114.33
2017-12-25T14:03:07.863Z,101117.83
2017-12-25T14:05:35.507Z,101103.55
2017-12-25T14:08:03.908Z,101105.98
2017-12-25T14:10:32.402Z,101099.62
2017-12-25T14:13:00.098Z,101095.94
2017-12-25T14:15:27.765Z,101097.84
2017-12-25T14:17:55.428Z,101089.16
2017-12-25T14:20:23.094Z,101097.20
2017-12-25T14:22:50.755Z,101096.25
2017-12-25T14:25:18.323Z,101095.69
2017-12-25T14:27:45.930Z,101090.58
2017-12-25T14:30:13.499Z,101097.34
2017-12-25T14:32:41.067Z,101089.80
2017-12-25T14:35:08.660Z,101089.88
2017-12-25T14:37:36.229Z,101080.56
2017-12-25T14:40:03.808Z,101085.36
2017-12-25T14:42:31.410Z,101079.58
2017-12-25T14:44:58.982Z,101081.34
2017-12-25T14:47:26.662Z,101084.20
2017-12-25T14:49:54.236Z,101084.16
2017-12-25T14:52:22.594Z,101082.75
2017-12-25T14:54:50.171Z,101077.95
2017-12-25T14:57:17.786Z,101079.98
2017-12-25T14:59:46.315Z,101072.59
2017-12-25T15:02:13.974Z,101074.00
2017-12-25T15:04:41.556Z,101066.06
2017-12-25T15:07:09.131Z,101059.61
2017-12-25T15:09:36.707Z,101057.56
2017-12-25T15:12:04.324Z,101057.92
2017-12-25T15:14:31.890Z,101062.95
2017-12-25T15:16:59.547Z,101056.75
2017-12-25T15:19:27.212Z,101060.03
2017-12-25T15:21:55.560Z,101056.44
2017-12-25T15:24:23.185Z,101045.16
2017-12-25T15:26:50.807Z,101041.06
2017-12-25T15:29:18.379Z,101034.64
2017-12-25T15:31:45.955Z,101035.56
2017-12-25T15:34:13.594Z,101035.45
2017-12-25T15:36:41.246Z,101029.92
2017-12-25T15:39:08.811Z,101027.98
2017-12-25T15:41:36.378Z,101030.53
2017-12-25T15:44:03.958Z,101033.70
2017-12-25T15:46:32.478Z,101023.66
2017-12-25T15:49:00.084Z,101029.92
2017-12-25T15:51:27.655Z,101027.10
2017-12-25T15:53:55.241Z,101020.80
2017-12-25T15:56:22.853Z,101018.57
2017-12-25T15:58:50.459Z,101021.46
2017-12-25T16:01:18.028Z,101019.91
2017-12-25T16:03:46.538Z,101017.48
2017-12-25T16:06:14.958Z,101014.88
2017-12-25T16:08:42.614Z,101016.81
2017-12-25T16:11:10.274Z,101006.56
2017-12-25T16:13:37.843Z,101015.16
2017-12-25T16:16:05.523Z,101008.45
2017-12-25T16:18:33.151Z,101008.00
2017-12-25T16:21:00.722Z,101004.33
2017-12-25T16:23:28.388Z,100995.88
2017-12-25T16:25:56.866Z,101002.19
2017-12-25T16:28:25.257Z,100997.67
2017-12-25T16:30:53.707Z,100999.89
2017-12-25T16:33:22.222Z,100998.73
2017-12-25T16:35:50.803Z,101002.78
2017-12-25T16:38:19.146Z,100996.51
2017-12-25T16:40:47.522Z,100994.81
2017-12-25T16:43:15.947Z,100991.44
2017-12-25T16:45:44.230Z,100986.01
2017-12-25T16:48:11.880Z,100984.91
2017-12-25T16:50:40.358Z,100979.07
2017-12-25T16:53:07.926Z,100989.00
2017-12-25T16:55:35.534Z,100981.67
2017-12-25T16:58:03.105Z,100975.89
2017-12-25T17:00:31.420Z,100972.30
2017-12-25T17:02:58.987Z,100971.14
2017-12-25T17:05:27.466Z,100968.22
2017-12-25T17:07:55.131Z,100962.76
2017-12-25T17:10:23.616Z,100957.92
2017-12-25T17:12:51.203Z,100958.20
2017-12-25T17:15:19.759Z,100960.00
2017-12-25T17:17:47.394Z,100960.74
2017-12-25T17:20:15.787Z,100962.98
2017-12-25T17:22:44.189Z,100962.53
2017-12-25T17:25:12.539Z,100958.27
2017-12-25T17:27:41.048Z,100941.40
2017-12-25T17:30:08.678Z,100951.54
2017-12-25T17:32:37.186Z,100939.71
2017-12-25T17:35:04.770Z,100939.75
2017-12-25T17:37:33.190Z,100937.60
2017-12-25T17:40:00.759Z,100950.23
2017-12-25T17:42:29.378Z,100945.84
2017-12-25T17:44:57.714Z,100945.21
2017-12-25T17:47:25.414Z,100944.23
2017-12-25T17:49:54.674Z,100937.18
2017-12-25T17:52:22.263Z,100934.89
2017-12-25T17:54:50.767Z,100924.18
2017-12-25T17:57:19.287Z,100911.82
2017-12-25T17:59:47.722Z,100911.19
2017-12-25T18:02:16.143Z,100907.41
2017-12-25T18:04:43.711Z,100902.02
2017-12-25T18:07:11.276Z,100906.00
2017-12-25T18:09:38.847Z,100902.94
2017-12-25T18:12:06.459Z,100897.30
2017-12-25T18:14:34.070Z,100897.16
2017-12-25T18:17:01.783Z,100889.48
2017-12-25T18:19:29.358Z,100886.39
2017-12-25T18:21:56.922Z,100881.39
2017-12-25T18:24:24.562Z,100877.77
2017-12-25T18:26:52.228Z,100883.78
2017-12-25T18:29:19.798Z,100881.49
2017-12-25T18:31:47.453Z,100879.20
2017-12-25T18:34:15.036Z,100874.55
2017-12-25T18:36:43.525Z,100875.50
2017-12-25T18:39:11.104Z,100875.13
2017-12-25T18:41:38.715Z,100875.78
2017-12-25T18:44:06.285Z,100874.84
2017-12-25T18:46:33.945Z,100866.52
2017-12-25T18:49:01.559Z,100864.66
2017-12-25T18:51:29.982Z,100855.02
2017-12-25T18:53:58.522Z,100853.49
2017-12-25T18:56:26.134Z,100855.12
2017-12-25T18:58:53.707Z,100855.36
2017-12-25T19:01:21.357Z,100849.80
2017-12-25T19:03:49.934Z,100843.25
2017-12-25T19:06:17.607Z,100842.23
2017-12-25T19:08:45.259Z,100852.14
2017-12-25T19:11:12.887Z,100829.59
2017-12-25T19:13:40.487Z,100825.12
2017-12-25T19:16:08.977Z,100824.72
2017-12-25T19:18:36.626Z,100821.77
2017-12-25T19:21:04.294Z,100810.13
2017-12-25T19:23:32.773Z,100803.58
2017-12-25T19:26:00.344Z,100803.23
2017-12-25T19:28:28.003Z,100798.69
2017-12-25T19:30:55.667Z,100799.49
2017-12-25T19:33:24.173Z,100805.47
2017-12-25T19:35:54.443Z,100797.35
2017-12-25T19:38:22.087Z,100799.04
2017-12-25T19:40:49.700Z,100792.25
2017-12-25T19:43:17.342Z,100792.31
2017-12-25T19:45:45.055Z,100775.25
2017-12-25T19:48:12.628Z,100781.52
2017-12-25T19:50:40.239Z,100782.81
2017-12-25T19:53:08.864Z,100777.39
2017-12-25T19:55:36.442Z,100783.91
2017-12-25T19:58:04.839Z,100774.69
2017-12-25T20:00:33.184Z,100778.28
2017-12-25T20:03:01.690Z,100776.20
2017-12-25T20:05:30.138Z,100768.42
2017-12-25T20:07:58.512Z,100771.12
2017-12-25T20:10:26.883Z,100768.38
2017-12-25T20:12:55.286Z,100764.86
2017-12-25T20:15:22.923Z,100762.80
2017-12-25T20:17:50.588Z,100750.95
2017-12-25T20:20:19.288Z,100753.69
2017-12-25T20:22:46.927Z,100744.41
2017-12-25T20:25:14.595Z,100746.94
2017-12-25T20:27:44.778Z,100739.09
2017-12-25T20:30:15.370Z,100740.22
2017-12-25T20:32:43.913Z,100734.13
2017-12-25T20:35:16.235Z,100731.01
2017-12-25T20:37:47.334Z,100725.48
2017-12-25T20:40:15.281Z,100731.43
2017-12-25T20:42:51.054Z,100726.80
2017-12-25T20:45:20.444Z,100730.20
2017-12-25T20:48:08.791Z,100720.48
2017-12-25T20:50:54.760Z,100725.95
2017-12-25T20:53:30.057Z,100721.37
2017-12-25T20:55:58.618Z,100719.34
2017-12-25T20:58:26.196Z,100710.13
2017-12-25T21:00:54.002Z,100706.78
2017-12-25T21:03:21.572Z,100702.35
2017-12-25T21:05:49.175Z,100700.58
2017-12-25T21:08:16.846Z,100696.74
2017-12-25T21:10:44.643Z,100693.34
2017-12-25T21:13:12.986Z,100689.52
2017-12-25T21:15:40.554Z,100688.08
2017-12-25T21:18:08.123Z,100682.87
2017-12-25T21:20:35.782Z,100684.52
2017-12-25T21:23:03.346Z,100681.16
2017-12-25T21:25:30.920Z,100678.63
2017-12-25T21:27:58.527Z,100674.20
2017-12-25T21:30:26.134Z,100677.59
2017-12-25T21:32:53.783Z,100672.06
2017-12-25T21:35:21.456Z,100666.52
2017-12-25T21:37:49.099Z,100670.33
2017-12-25T21:40:16.959Z,100660.13
2017-12-25T21:42:44.578Z,100651.34
2017-12-25T21:45:12.208Z,100661.78
2017-12-25T21:47:39.872Z,100652.14
2017-12-25T21:50:07.448Z,100646.85
2017-12-25T21:52:35.940Z,100649.28
2017-12-25T21:55:03.512Z,100644.37
2017-12-25T21:57:31.168Z,100643.77
2017-12-25T21:59:58.774Z,100640.45
2017-12-25T22:02:26.419Z,100640.99
2017-12-25T22:04:53.986Z,100634.95
2017-12-25T22:07:21.586Z,100633.58
2017-12-25T22:09:49.159Z,100633.30
2017-12-25T22:12:17.586Z,100633.28
2017-12-25T22:14:45.723Z,100627.24
2017-12-25T22:17:13.307Z,100616.66
2017-12-25T22:19:40.875Z,100613.36
2017-12-25T22:22:09.300Z,100613.69
2017-12-25T22:24:37.684Z,100611.81
2017-12-25T22:27:06.044Z,100602.38
2017-12-25T22:29:33.655Z,100604.16
2017-12-25T22:32:01.341Z,100602.75
2017-12-25T22:34:28.954Z,100602.06
2017-12-25T22:36:56.559Z,100600.88
2017-12-25T22:39:25.073Z,100592.30
2017-12-25T22:41:53.668Z,100592.41
2017-12-25T22:44:21.276Z,100597.87
2017-12-25T22:46:48.847Z,100594.67
2017-12-25T22:49:16.459Z,100593.31
2017-12-25T22:51:44.931Z,100586.23
2017-12-25T22:54:13.427Z,100575.48
2017-12-25T22:56:41.942Z,100581.23
2017-12-25T22:59:09.811Z,100573.70
2017-12-25T23:01:37.422Z,100575.70
2017-12-25T23:04:05.102Z,100574.91
2017-12-25T23:06:32.711Z,100577.19
2017-12-25T23:09:00.286Z,100573.89
2017-12-25T23:11:27.906Z,100572.13
2017-12-25T23:13:55.486Z,100567.16
2017-12-25T23:16:23.061Z,100566.48
2017-12-25T23:18:50.670Z,100556.27
2017-12-25T23:21:18.279Z,100554.81
2017-12-25T23:23:46.723Z,100552.82
2017-12-25T23:26:15.405Z,100548.86
2017-12-25T23:28:42.988Z,100550.03
2017-12-25T23:31:11.330Z,100539.33
2017-12-25T23:33:38.903Z,100535.48
2017-12-25T23:36:06.519Z,100533.56
2017-12-25T23:38:34.122Z,100524.89
2017-12-25T23:41:02.660Z,100529.91
2017-12-25T23:43:30.237Z,100525.48
2017-12-25T23:45:57.860Z,100522.17
2017-12-25T23:48:26.226Z,100518.88
2017-12-25T23:50:53.803Z,100513.53
2017-12-25T23:53:22.288Z,100507.35
2017-12-25T23:55:49.863Z,100505.88
2017-12-25T23:58:17.483Z,100503.18
